sensor_id;sensor_type;location;lat;lon;timestamp;P1;durP1;ratioP1;P2;durP2;ratioP2
53203;SDS011;39086;54.424;18.456;2023-08-06T00:00:20;5.33;;;4.73;;
53203;SDS011;39086;54.424;18.456;2023-08-06T00:01:24;6.97;;;5.10;;
53203;SDS011;39086;54.424;18.456;2023-08-06T00:02:27;8.00;;;4.67;;
53203;SDS011;39086;54.424;18.456;2023-08-06T00:03:30;9.17;;;4.60;;
53203;SDS011;39086;54.424;18.456;2023-08-06T00:04:32;7.10;;;4.50;;
53203;SDS011;39086;54.424;18.456;2023-08-06T00:05:35;5.83;;;4.90;;
53203;SDS011;39086;54.424;18.456;2023-08-06T00:06:37;9.30;;;5.00;;
53203;SDS011;39086;54.424;18.456;2023-08-06T00:07:40;9.07;;;5.10;;
53203;SDS011;39086;54.424;18.456;2023-08-06T00:08:42;6.87;;;4.73;;
53203;SDS011;39086;54.424;18.456;2023-08-06T00:09:45;5.20;;;4.70;;
53203;SDS011;39086;54.424;18.456;2023-08-06T00:10:47;9.40;;;5.13;;
53203;SDS011;39086;54.424;18.456;2023-08-06T00:11:50;7.03;;;4.60;;
53203;SDS011;39086;54.424;18.456;2023-08-06T00:12:53;9.63;;;4.90;;
53203;SDS011;39086;54.424;18.456;2023-08-06T00:13:56;8.17;;;4.77;;
53203;SDS011;39086;54.424;18.456;2023-08-06T00:14:59;9.37;;;4.90;;
53203;SDS011;39086;54.424;18.456;2023-08-06T00:16:09;5.30;;;4.80;;
53203;SDS011;39086;54.424;18.456;2023-08-06T00:17:11;8.60;;;4.97;;
53203;SDS011;39086;54.424;18.456;2023-08-06T00:18:15;7.87;;;5.10;;
53203;SDS011;39086;54.424;18.456;2023-08-06T00:19:17;5.37;;;4.87;;
53203;SDS011;39086;54.424;18.456;2023-08-06T00:20:20;7.07;;;4.70;;
53203;SDS011;39086;54.424;18.456;2023-08-06T00:21:22;7.70;;;4.57;;
53203;SDS011;39086;54.424;18.456;2023-08-06T00:22:25;8.83;;;4.80;;
53203;SDS011;39086;54.424;18.456;2023-08-06T00:23:27;8.30;;;5.20;;
53203;SDS011;39086;54.424;18.456;2023-08-06T00:24:30;7.87;;;4.70;;
53203;SDS011;39086;54.424;18.456;2023-08-06T00:25:32;5.40;;;4.90;;
53203;SDS011;39086;54.424;18.456;2023-08-06T00:26:35;6.93;;;4.90;;
53203;SDS011;39086;54.424;18.456;2023-08-06T00:27:38;8.13;;;4.20;;
53203;SDS011;39086;54.424;18.456;2023-08-06T00:28:41;7.20;;;4.60;;
53203;SDS011;39086;54.424;18.456;2023-08-06T00:29:43;8.37;;;4.87;;
53203;SDS011;39086;54.424;18.456;2023-08-06T00:30:51;5.60;;;5.10;;
53203;SDS011;39086;54.424;18.456;2023-08-06T00:31:54;5.93;;;4.87;;
53203;SDS011;39086;54.424;18.456;2023-08-06T00:36:28;7.80;;;5.23;;
53203;SDS011;39086;54.424;18.456;2023-08-06T00:37:31;7.73;;;5.20;;
53203;SDS011;39086;54.424;18.456;2023-08-06T00:38:33;5.87;;;4.90;;
53203;SDS011;39086;54.424;18.456;2023-08-06T00:39:36;7.43;;;4.60;;
53203;SDS011;39086;54.424;18.456;2023-08-06T00:40:38;9.03;;;4.67;;
53203;SDS011;39086;54.424;18.456;2023-08-06T00:41:41;6.20;;;4.93;;
53203;SDS011;39086;54.424;18.456;2023-08-06T00:42:44;7.17;;;4.60;;
53203;SDS011;39086;54.424;18.456;2023-08-06T00:43:47;8.77;;;4.77;;
53203;SDS011;39086;54.424;18.456;2023-08-06T00:44:49;10.03;;;4.90;;
53203;SDS011;39086;54.424;18.456;2023-08-06T00:45:53;7.17;;;4.47;;
53203;SDS011;39086;54.424;18.456;2023-08-06T00:46:56;5.73;;;4.30;;
53203;SDS011;39086;54.424;18.456;2023-08-06T00:48:00;7.90;;;4.53;;
53203;SDS011;39086;54.424;18.456;2023-08-06T00:49:02;5.70;;;4.80;;
53203;SDS011;39086;54.424;18.456;2023-08-06T00:50:06;7.40;;;5.13;;
53203;SDS011;39086;54.424;18.456;2023-08-06T00:51:09;9.00;;;5.40;;
53203;SDS011;39086;54.424;18.456;2023-08-06T00:52:13;9.33;;;5.53;;
53203;SDS011;39086;54.424;18.456;2023-08-06T00:53:15;6.83;;;5.03;;
53203;SDS011;39086;54.424;18.456;2023-08-06T00:54:18;9.10;;;5.43;;
53203;SDS011;39086;54.424;18.456;2023-08-06T00:55:20;8.53;;;5.30;;
53203;SDS011;39086;54.424;18.456;2023-08-06T00:56:23;6.67;;;5.37;;
53203;SDS011;39086;54.424;18.456;2023-08-06T00:57:26;5.93;;;4.80;;
53203;SDS011;39086;54.424;18.456;2023-08-06T00:58:29;6.03;;;5.43;;
53203;SDS011;39086;54.424;18.456;2023-08-06T00:59:32;8.80;;;4.63;;
53203;SDS011;39086;54.424;18.456;2023-08-06T01:00:35;8.53;;;5.03;;
53203;SDS011;39086;54.424;18.456;2023-08-06T01:01:39;6.40;;;5.50;;
53203;SDS011;39086;54.424;18.456;2023-08-06T01:02:42;6.73;;;4.87;;
53203;SDS011;39086;54.424;18.456;2023-08-06T01:03:45;8.87;;;5.23;;
53203;SDS011;39086;54.424;18.456;2023-08-06T01:04:48;8.03;;;5.40;;
53203;SDS011;39086;54.424;18.456;2023-08-06T01:05:51;9.03;;;5.20;;
53203;SDS011;39086;54.424;18.456;2023-08-06T01:06:57;6.57;;;5.00;;
53203;SDS011;39086;54.424;18.456;2023-08-06T01:08:12;10.47;;;5.57;;
53203;SDS011;39086;54.424;18.456;2023-08-06T01:09:22;8.63;;;5.83;;
53203;SDS011;39086;54.424;18.456;2023-08-06T01:10:35;11.57;;;6.50;;
53203;SDS011;39086;54.424;18.456;2023-08-06T01:11:43;11.77;;;6.90;;
53203;SDS011;39086;54.424;18.456;2023-08-06T01:12:54;9.40;;;5.73;;
53203;SDS011;39086;54.424;18.456;2023-08-06T01:14:08;8.03;;;5.50;;
53203;SDS011;39086;54.424;18.456;2023-08-06T01:15:15;9.67;;;6.30;;
53203;SDS011;39086;54.424;18.456;2023-08-06T01:16:21;13.90;;;6.97;;
53203;SDS011;39086;54.424;18.456;2023-08-06T01:17:26;8.97;;;6.47;;
53203;SDS011;39086;54.424;18.456;2023-08-06T01:18:32;10.37;;;6.90;;
53203;SDS011;39086;54.424;18.456;2023-08-06T01:19:35;9.17;;;7.23;;
53203;SDS011;39086;54.424;18.456;2023-08-06T01:20:39;12.23;;;6.97;;
53203;SDS011;39086;54.424;18.456;2023-08-06T01:21:42;11.17;;;7.27;;
53203;SDS011;39086;54.424;18.456;2023-08-06T01:22:45;12.73;;;6.90;;
53203;SDS011;39086;54.424;18.456;2023-08-06T01:23:47;12.00;;;6.97;;
53203;SDS011;39086;54.424;18.456;2023-08-06T01:24:51;11.03;;;6.93;;
53203;SDS011;39086;54.424;18.456;2023-08-06T01:25:56;11.97;;;6.97;;
53203;SDS011;39086;54.424;18.456;2023-08-06T01:27:06;8.20;;;6.90;;
53203;SDS011;39086;54.424;18.456;2023-08-06T01:28:15;11.33;;;6.80;;
53203;SDS011;39086;54.424;18.456;2023-08-06T01:29:23;10.37;;;7.20;;
53203;SDS011;39086;54.424;18.456;2023-08-06T01:30:31;12.83;;;7.40;;
53203;SDS011;39086;54.424;18.456;2023-08-06T01:31:38;12.50;;;7.67;;
53203;SDS011;39086;54.424;18.456;2023-08-06T01:32:44;12.23;;;7.60;;
53203;SDS011;39086;54.424;18.456;2023-08-06T01:33:48;12.47;;;8.00;;
53203;SDS011;39086;54.424;18.456;2023-08-06T01:34:52;10.80;;;8.07;;
53203;SDS011;39086;54.424;18.456;2023-08-06T01:35:59;8.67;;;6.80;;
53203;SDS011;39086;54.424;18.456;2023-08-06T01:37:02;11.10;;;7.37;;
53203;SDS011;39086;54.424;18.456;2023-08-06T01:38:06;10.67;;;7.30;;
53203;SDS011;39086;54.424;18.456;2023-08-06T01:39:08;7.23;;;6.53;;
53203;SDS011;39086;54.424;18.456;2023-08-06T01:40:11;10.60;;;6.93;;
53203;SDS011;39086;54.424;18.456;2023-08-06T01:41:14;8.63;;;7.10;;
53203;SDS011;39086;54.424;18.456;2023-08-06T01:42:17;11.00;;;6.80;;
53203;SDS011;39086;54.424;18.456;2023-08-06T01:43:20;10.80;;;6.57;;
53203;SDS011;39086;54.424;18.456;2023-08-06T01:44:22;11.50;;;6.77;;
53203;SDS011;39086;54.424;18.456;2023-08-06T01:45:25;10.53;;;6.80;;
53203;SDS011;39086;54.424;18.456;2023-08-06T01:46:27;9.43;;;6.60;;
53203;SDS011;39086;54.424;18.456;2023-08-06T01:47:30;9.97;;;6.83;;
53203;SDS011;39086;54.424;18.456;2023-08-06T01:48:32;8.10;;;6.10;;
53203;SDS011;39086;54.424;18.456;2023-08-06T01:49:34;9.03;;;5.70;;
53203;SDS011;39086;54.424;18.456;2023-08-06T01:50:37;9.30;;;6.80;;
53203;SDS011;39086;54.424;18.456;2023-08-06T01:51:41;9.50;;;6.40;;
53203;SDS011;39086;54.424;18.456;2023-08-06T01:52:44;11.10;;;6.27;;
53203;SDS011;39086;54.424;18.456;2023-08-06T01:53:46;8.53;;;5.93;;
53203;SDS011;39086;54.424;18.456;2023-08-06T01:54:49;14.43;;;7.07;;
53203;SDS011;39086;54.424;18.456;2023-08-06T01:55:51;6.97;;;5.93;;
53203;SDS011;39086;54.424;18.456;2023-08-06T01:56:54;6.67;;;5.73;;
53203;SDS011;39086;54.424;18.456;2023-08-06T01:57:56;9.03;;;6.37;;
53203;SDS011;39086;54.424;18.456;2023-08-06T01:58:59;7.73;;;6.10;;
53203;SDS011;39086;54.424;18.456;2023-08-06T02:00:05;9.33;;;5.97;;
53203;SDS011;39086;54.424;18.456;2023-08-06T02:01:10;6.60;;;6.00;;
53203;SDS011;39086;54.424;18.456;2023-08-06T02:02:12;6.40;;;5.53;;
53203;SDS011;39086;54.424;18.456;2023-08-06T02:03:15;8.73;;;5.20;;
53203;SDS011;39086;54.424;18.456;2023-08-06T02:04:17;7.53;;;6.13;;
53203;SDS011;39086;54.424;18.456;2023-08-06T02:05:21;9.27;;;6.10;;
53203;SDS011;39086;54.424;18.456;2023-08-06T02:06:23;9.60;;;6.00;;
53203;SDS011;39086;54.424;18.456;2023-08-06T02:07:27;7.13;;;5.97;;
53203;SDS011;39086;54.424;18.456;2023-08-06T02:08:29;7.90;;;6.30;;
53203;SDS011;39086;54.424;18.456;2023-08-06T02:09:32;8.40;;;5.53;;
53203;SDS011;39086;54.424;18.456;2023-08-06T02:10:36;5.93;;;5.30;;
53203;SDS011;39086;54.424;18.456;2023-08-06T02:11:39;9.00;;;5.50;;
53203;SDS011;39086;54.424;18.456;2023-08-06T02:12:41;8.07;;;5.33;;
53203;SDS011;39086;54.424;18.456;2023-08-06T02:13:45;7.97;;;5.50;;
53203;SDS011;39086;54.424;18.456;2023-08-06T02:14:47;9.90;;;5.67;;
53203;SDS011;39086;54.424;18.456;2023-08-06T02:15:50;7.70;;;6.03;;
53203;SDS011;39086;54.424;18.456;2023-08-06T02:16:53;6.53;;;5.50;;
53203;SDS011;39086;54.424;18.456;2023-08-06T02:17:56;6.33;;;5.07;;
53203;SDS011;39086;54.424;18.456;2023-08-06T02:18:58;6.00;;;5.47;;
53203;SDS011;39086;54.424;18.456;2023-08-06T02:20:01;9.83;;;5.97;;
53203;SDS011;39086;54.424;18.456;2023-08-06T02:21:04;6.20;;;5.20;;
53203;SDS011;39086;54.424;18.456;2023-08-06T02:22:07;5.73;;;5.07;;
53203;SDS011;39086;54.424;18.456;2023-08-06T02:23:10;6.70;;;5.80;;
53203;SDS011;39086;54.424;18.456;2023-08-06T02:24:13;8.40;;;5.67;;
53203;SDS011;39086;54.424;18.456;2023-08-06T02:25:15;7.27;;;5.70;;
53203;SDS011;39086;54.424;18.456;2023-08-06T02:26:18;9.93;;;6.67;;
53203;SDS011;39086;54.424;18.456;2023-08-06T02:27:21;8.83;;;5.77;;
53203;SDS011;39086;54.424;18.456;2023-08-06T02:28:24;7.47;;;5.53;;
53203;SDS011;39086;54.424;18.456;2023-08-06T02:29:26;6.93;;;5.60;;
53203;SDS011;39086;54.424;18.456;2023-08-06T02:30:29;8.27;;;5.73;;
53203;SDS011;39086;54.424;18.456;2023-08-06T02:31:31;12.53;;;6.07;;
53203;SDS011;39086;54.424;18.456;2023-08-06T02:32:35;6.90;;;5.70;;
53203;SDS011;39086;54.424;18.456;2023-08-06T02:33:37;7.40;;;5.80;;
53203;SDS011;39086;54.424;18.456;2023-08-06T02:34:40;9.73;;;6.10;;
53203;SDS011;39086;54.424;18.456;2023-08-06T02:35:42;10.80;;;6.07;;
53203;SDS011;39086;54.424;18.456;2023-08-06T02:36:45;10.57;;;6.23;;
53203;SDS011;39086;54.424;18.456;2023-08-06T02:37:48;8.37;;;6.43;;
53203;SDS011;39086;54.424;18.456;2023-08-06T02:38:51;7.57;;;6.47;;
53203;SDS011;39086;54.424;18.456;2023-08-06T02:39:54;10.13;;;7.03;;
53203;SDS011;39086;54.424;18.456;2023-08-06T02:40:56;7.60;;;6.90;;
53203;SDS011;39086;54.424;18.456;2023-08-06T02:41:59;8.47;;;7.20;;
53203;SDS011;39086;54.424;18.456;2023-08-06T02:43:02;9.03;;;8.10;;
53203;SDS011;39086;54.424;18.456;2023-08-06T02:44:04;12.30;;;7.90;;
53203;SDS011;39086;54.424;18.456;2023-08-06T02:45:07;13.93;;;8.37;;
53203;SDS011;39086;54.424;18.456;2023-08-06T02:46:10;12.33;;;8.23;;
53203;SDS011;39086;54.424;18.456;2023-08-06T02:47:12;12.30;;;8.13;;
53203;SDS011;39086;54.424;18.456;2023-08-06T02:48:15;11.40;;;8.20;;
53203;SDS011;39086;54.424;18.456;2023-08-06T02:49:19;11.57;;;8.93;;
53203;SDS011;39086;54.424;18.456;2023-08-06T02:50:22;12.60;;;9.37;;
53203;SDS011;39086;54.424;18.456;2023-08-06T02:51:24;9.20;;;7.73;;
53203;SDS011;39086;54.424;18.456;2023-08-06T02:52:28;10.00;;;7.57;;
53203;SDS011;39086;54.424;18.456;2023-08-06T02:53:30;11.80;;;7.83;;
53203;SDS011;39086;54.424;18.456;2023-08-06T02:54:35;8.90;;;8.00;;
53203;SDS011;39086;54.424;18.456;2023-08-06T02:55:37;11.57;;;8.17;;
53203;SDS011;39086;54.424;18.456;2023-08-06T02:56:42;11.63;;;7.47;;
53203;SDS011;39086;54.424;18.456;2023-08-06T02:57:46;12.30;;;7.73;;
53203;SDS011;39086;54.424;18.456;2023-08-06T02:58:49;12.03;;;7.90;;
53203;SDS011;39086;54.424;18.456;2023-08-06T02:59:51;12.63;;;7.77;;
53203;SDS011;39086;54.424;18.456;2023-08-06T03:01:01;12.93;;;7.80;;
53203;SDS011;39086;54.424;18.456;2023-08-06T03:02:05;8.83;;;7.57;;
53203;SDS011;39086;54.424;18.456;2023-08-06T03:03:08;14.23;;;7.60;;
53203;SDS011;39086;54.424;18.456;2023-08-06T03:04:11;9.60;;;7.73;;
53203;SDS011;39086;54.424;18.456;2023-08-06T03:05:14;8.70;;;7.20;;
53203;SDS011;39086;54.424;18.456;2023-08-06T03:06:16;9.63;;;7.50;;
53203;SDS011;39086;54.424;18.456;2023-08-06T03:07:18;8.67;;;7.80;;
53203;SDS011;39086;54.424;18.456;2023-08-06T03:08:21;12.90;;;8.27;;
53203;SDS011;39086;54.424;18.456;2023-08-06T03:09:24;8.37;;;7.47;;
53203;SDS011;39086;54.424;18.456;2023-08-06T03:10:27;10.70;;;8.70;;
53203;SDS011;39086;54.424;18.456;2023-08-06T03:11:31;9.40;;;7.90;;
53203;SDS011;39086;54.424;18.456;2023-08-06T03:12:33;10.03;;;9.13;;
53203;SDS011;39086;54.424;18.456;2023-08-06T03:13:36;9.50;;;8.60;;
53203;SDS011;39086;54.424;18.456;2023-08-06T03:14:38;11.33;;;7.70;;
53203;SDS011;39086;54.424;18.456;2023-08-06T03:15:42;9.60;;;8.17;;
53203;SDS011;39086;54.424;18.456;2023-08-06T03:16:44;9.57;;;8.33;;
53203;SDS011;39086;54.424;18.456;2023-08-06T03:17:47;9.77;;;7.80;;
53203;SDS011;39086;54.424;18.456;2023-08-06T03:18:50;12.97;;;8.43;;
53203;SDS011;39086;54.424;18.456;2023-08-06T03:19:53;10.77;;;9.60;;
53203;SDS011;39086;54.424;18.456;2023-08-06T03:20:55;10.83;;;8.47;;
53203;SDS011;39086;54.424;18.456;2023-08-06T03:21:59;13.33;;;9.40;;
53203;SDS011;39086;54.424;18.456;2023-08-06T03:23:01;14.83;;;9.47;;
53203;SDS011;39086;54.424;18.456;2023-08-06T03:24:04;15.33;;;9.90;;
53203;SDS011;39086;54.424;18.456;2023-08-06T03:25:07;12.63;;;9.57;;
53203;SDS011;39086;54.424;18.456;2023-08-06T03:26:11;12.70;;;9.70;;
53203;SDS011;39086;54.424;18.456;2023-08-06T03:27:14;13.57;;;10.10;;
53203;SDS011;39086;54.424;18.456;2023-08-06T03:28:17;14.70;;;9.97;;
53203;SDS011;39086;54.424;18.456;2023-08-06T03:29:19;15.47;;;10.20;;
53203;SDS011;39086;54.424;18.456;2023-08-06T03:30:23;17.10;;;11.30;;
53203;SDS011;39086;54.424;18.456;2023-08-06T03:31:25;12.33;;;10.37;;
53203;SDS011;39086;54.424;18.456;2023-08-06T03:32:27;16.10;;;10.97;;
53203;SDS011;39086;54.424;18.456;2023-08-06T03:33:31;14.33;;;10.90;;
53203;SDS011;39086;54.424;18.456;2023-08-06T03:34:33;14.87;;;9.60;;
53203;SDS011;39086;54.424;18.456;2023-08-06T03:35:36;16.47;;;10.40;;
53203;SDS011;39086;54.424;18.456;2023-08-06T03:36:38;14.90;;;10.37;;
53203;SDS011;39086;54.424;18.456;2023-08-06T03:37:42;15.43;;;9.57;;
53203;SDS011;39086;54.424;18.456;2023-08-06T03:38:44;11.57;;;9.50;;
53203;SDS011;39086;54.424;18.456;2023-08-06T03:39:47;11.80;;;10.00;;
53203;SDS011;39086;54.424;18.456;2023-08-06T03:40:49;14.87;;;10.33;;
53203;SDS011;39086;54.424;18.456;2023-08-06T03:41:54;14.13;;;10.07;;
53203;SDS011;39086;54.424;18.456;2023-08-06T03:42:56;18.60;;;10.23;;
53203;SDS011;39086;54.424;18.456;2023-08-06T03:44:00;15.17;;;10.10;;
53203;SDS011;39086;54.424;18.456;2023-08-06T03:45:05;13.83;;;10.63;;
53203;SDS011;39086;54.424;18.456;2023-08-06T03:46:08;12.67;;;9.70;;
53203;SDS011;39086;54.424;18.456;2023-08-06T03:47:11;15.13;;;10.83;;
53203;SDS011;39086;54.424;18.456;2023-08-06T03:48:14;12.03;;;10.17;;
53203;SDS011;39086;54.424;18.456;2023-08-06T03:49:16;13.57;;;10.67;;
53203;SDS011;39086;54.424;18.456;2023-08-06T03:50:20;15.03;;;9.97;;
53203;SDS011;39086;54.424;18.456;2023-08-06T03:51:22;11.90;;;9.97;;
53203;SDS011;39086;54.424;18.456;2023-08-06T03:52:26;14.43;;;10.53;;
53203;SDS011;39086;54.424;18.456;2023-08-06T03:53:28;16.17;;;10.20;;
53203;SDS011;39086;54.424;18.456;2023-08-06T03:54:31;13.10;;;9.50;;
53203;SDS011;39086;54.424;18.456;2023-08-06T03:55:34;11.97;;;9.37;;
53203;SDS011;39086;54.424;18.456;2023-08-06T03:56:37;12.53;;;9.70;;
53203;SDS011;39086;54.424;18.456;2023-08-06T03:57:41;13.93;;;9.07;;
53203;SDS011;39086;54.424;18.456;2023-08-06T03:58:44;14.87;;;9.67;;
53203;SDS011;39086;54.424;18.456;2023-08-06T03:59:46;14.80;;;10.67;;
53203;SDS011;39086;54.424;18.456;2023-08-06T04:00:59;14.53;;;9.63;;
53203;SDS011;39086;54.424;18.456;2023-08-06T04:02:01;15.50;;;10.37;;
53203;SDS011;39086;54.424;18.456;2023-08-06T04:03:05;15.00;;;11.13;;
53203;SDS011;39086;54.424;18.456;2023-08-06T04:04:07;16.50;;;11.07;;
53203;SDS011;39086;54.424;18.456;2023-08-06T04:05:10;19.83;;;10.70;;
53203;SDS011;39086;54.424;18.456;2023-08-06T04:06:13;13.43;;;10.80;;
53203;SDS011;39086;54.424;18.456;2023-08-06T04:07:16;15.40;;;11.57;;
53203;SDS011;39086;54.424;18.456;2023-08-06T04:08:18;15.93;;;10.87;;
53203;SDS011;39086;54.424;18.456;2023-08-06T04:09:22;17.30;;;11.27;;
53203;SDS011;39086;54.424;18.456;2023-08-06T04:10:24;16.40;;;11.37;;
53203;SDS011;39086;54.424;18.456;2023-08-06T04:11:27;20.83;;;11.80;;
53203;SDS011;39086;54.424;18.456;2023-08-06T04:12:29;15.50;;;11.07;;
53203;SDS011;39086;54.424;18.456;2023-08-06T04:13:33;18.17;;;11.27;;
53203;SDS011;39086;54.424;18.456;2023-08-06T04:14:35;20.23;;;11.73;;
53203;SDS011;39086;54.424;18.456;2023-08-06T04:15:39;16.83;;;11.07;;
53203;SDS011;39086;54.424;18.456;2023-08-06T04:16:41;16.77;;;11.30;;
53203;SDS011;39086;54.424;18.456;2023-08-06T04:17:44;17.30;;;10.57;;
53203;SDS011;39086;54.424;18.456;2023-08-06T04:18:46;16.27;;;10.63;;
53203;SDS011;39086;54.424;18.456;2023-08-06T04:19:49;15.77;;;10.90;;
53203;SDS011;39086;54.424;18.456;2023-08-06T04:20:52;16.77;;;10.20;;
53203;SDS011;39086;54.424;18.456;2023-08-06T04:21:56;17.17;;;10.10;;
53203;SDS011;39086;54.424;18.456;2023-08-06T04:22:58;15.67;;;9.67;;
53203;SDS011;39086;54.424;18.456;2023-08-06T04:24:01;14.13;;;10.33;;
53203;SDS011;39086;54.424;18.456;2023-08-06T04:25:04;19.77;;;10.27;;
53203;SDS011;39086;54.424;18.456;2023-08-06T04:26:08;13.40;;;9.97;;
53203;SDS011;39086;54.424;18.456;2023-08-06T04:27:10;13.30;;;9.83;;
53203;SDS011;39086;54.424;18.456;2023-08-06T04:28:14;13.47;;;8.93;;
53203;SDS011;39086;54.424;18.456;2023-08-06T04:29:17;14.30;;;9.93;;
53203;SDS011;39086;54.424;18.456;2023-08-06T04:30:20;18.03;;;10.13;;
53203;SDS011;39086;54.424;18.456;2023-08-06T04:31:22;15.20;;;9.73;;
53203;SDS011;39086;54.424;18.456;2023-08-06T04:32:25;14.20;;;9.10;;
53203;SDS011;39086;54.424;18.456;2023-08-06T04:33:27;16.13;;;10.30;;
53203;SDS011;39086;54.424;18.456;2023-08-06T04:34:31;13.70;;;10.17;;
53203;SDS011;39086;54.424;18.456;2023-08-06T04:35:33;18.47;;;10.23;;
53203;SDS011;39086;54.424;18.456;2023-08-06T04:36:36;15.80;;;9.73;;
53203;SDS011;39086;54.424;18.456;2023-08-06T04:37:40;13.37;;;10.77;;
53203;SDS011;39086;54.424;18.456;2023-08-06T04:38:43;16.00;;;10.13;;
53203;SDS011;39086;54.424;18.456;2023-08-06T04:39:48;16.47;;;10.10;;
53203;SDS011;39086;54.424;18.456;2023-08-06T04:40:51;17.00;;;10.70;;
53203;SDS011;39086;54.424;18.456;2023-08-06T04:41:54;15.23;;;11.07;;
53203;SDS011;39086;54.424;18.456;2023-08-06T04:42:58;17.63;;;10.70;;
53203;SDS011;39086;54.424;18.456;2023-08-06T04:44:02;23.07;;;11.83;;
53203;SDS011;39086;54.424;18.456;2023-08-06T04:45:07;14.47;;;11.20;;
53203;SDS011;39086;54.424;18.456;2023-08-06T04:46:10;18.17;;;11.13;;
53203;SDS011;39086;54.424;18.456;2023-08-06T04:47:13;14.90;;;10.77;;
53203;SDS011;39086;54.424;18.456;2023-08-06T04:48:16;17.90;;;11.77;;
53203;SDS011;39086;54.424;18.456;2023-08-06T04:49:19;17.60;;;11.17;;
53203;SDS011;39086;54.424;18.456;2023-08-06T04:50:23;16.30;;;10.80;;
53203;SDS011;39086;54.424;18.456;2023-08-06T04:51:25;15.90;;;11.40;;
53203;SDS011;39086;54.424;18.456;2023-08-06T04:52:28;21.10;;;11.37;;
53203;SDS011;39086;54.424;18.456;2023-08-06T04:53:31;19.67;;;11.73;;
53203;SDS011;39086;54.424;18.456;2023-08-06T04:54:34;21.30;;;11.40;;
53203;SDS011;39086;54.424;18.456;2023-08-06T04:55:36;25.33;;;12.80;;
53203;SDS011;39086;54.424;18.456;2023-08-06T04:56:39;24.00;;;12.17;;
53203;SDS011;39086;54.424;18.456;2023-08-06T04:57:41;23.60;;;12.13;;
53203;SDS011;39086;54.424;18.456;2023-08-06T04:58:45;16.53;;;11.47;;
53203;SDS011;39086;54.424;18.456;2023-08-06T04:59:47;20.03;;;11.73;;
53203;SDS011;39086;54.424;18.456;2023-08-06T05:00:52;19.60;;;12.70;;
53203;SDS011;39086;54.424;18.456;2023-08-06T05:01:55;19.23;;;12.43;;
53203;SDS011;39086;54.424;18.456;2023-08-06T05:02:59;23.87;;;12.70;;
53203;SDS011;39086;54.424;18.456;2023-08-06T05:04:01;20.50;;;13.07;;
53203;SDS011;39086;54.424;18.456;2023-08-06T05:05:05;22.63;;;13.03;;
53203;SDS011;39086;54.424;18.456;2023-08-06T05:06:07;23.67;;;12.47;;
53203;SDS011;39086;54.424;18.456;2023-08-06T05:07:10;21.23;;;13.20;;
53203;SDS011;39086;54.424;18.456;2023-08-06T05:08:13;23.37;;;13.27;;
53203;SDS011;39086;54.424;18.456;2023-08-06T05:09:18;22.53;;;13.07;;
53203;SDS011;39086;54.424;18.456;2023-08-06T05:10:21;21.60;;;12.67;;
53203;SDS011;39086;54.424;18.456;2023-08-06T05:11:24;20.60;;;12.80;;
53203;SDS011;39086;54.424;18.456;2023-08-06T05:12:26;23.10;;;12.80;;
53203;SDS011;39086;54.424;18.456;2023-08-06T05:13:30;24.23;;;12.97;;
53203;SDS011;39086;54.424;18.456;2023-08-06T05:14:32;23.73;;;12.67;;
53203;SDS011;39086;54.424;18.456;2023-08-06T05:15:35;22.17;;;12.73;;
53203;SDS011;39086;54.424;18.456;2023-08-06T05:16:38;28.07;;;13.53;;
53203;SDS011;39086;54.424;18.456;2023-08-06T05:17:42;22.43;;;13.10;;
53203;SDS011;39086;54.424;18.456;2023-08-06T05:18:45;28.30;;;13.43;;
53203;SDS011;39086;54.424;18.456;2023-08-06T05:19:48;25.97;;;13.00;;
53203;SDS011;39086;54.424;18.456;2023-08-06T05:20:50;23.73;;;12.73;;
53203;SDS011;39086;54.424;18.456;2023-08-06T05:21:53;25.00;;;12.33;;
53203;SDS011;39086;54.424;18.456;2023-08-06T05:22:55;18.47;;;13.77;;
53203;SDS011;39086;54.424;18.456;2023-08-06T05:23:59;22.10;;;12.23;;
53203;SDS011;39086;54.424;18.456;2023-08-06T05:25:01;24.43;;;12.30;;
53203;SDS011;39086;54.424;18.456;2023-08-06T05:26:04;19.60;;;12.87;;
53203;SDS011;39086;54.424;18.456;2023-08-06T05:27:06;24.07;;;12.83;;
53203;SDS011;39086;54.424;18.456;2023-08-06T05:28:09;28.20;;;12.57;;
53203;SDS011;39086;54.424;18.456;2023-08-06T05:29:11;23.70;;;13.07;;
53203;SDS011;39086;54.424;18.456;2023-08-06T05:30:14;18.83;;;12.17;;
53203;SDS011;39086;54.424;18.456;2023-08-06T05:31:16;22.43;;;11.67;;
53203;SDS011;39086;54.424;18.456;2023-08-06T05:32:21;23.50;;;12.63;;
53203;SDS011;39086;54.424;18.456;2023-08-06T05:33:24;20.33;;;12.17;;
53203;SDS011;39086;54.424;18.456;2023-08-06T05:34:27;18.27;;;11.40;;
53203;SDS011;39086;54.424;18.456;2023-08-06T05:35:29;24.87;;;12.33;;
53203;SDS011;39086;54.424;18.456;2023-08-06T05:36:32;20.37;;;12.20;;
53203;SDS011;39086;54.424;18.456;2023-08-06T05:37:34;20.83;;;12.50;;
53203;SDS011;39086;54.424;18.456;2023-08-06T05:38:37;22.27;;;10.50;;
53203;SDS011;39086;54.424;18.456;2023-08-06T05:39:39;18.60;;;11.57;;
53203;SDS011;39086;54.424;18.456;2023-08-06T05:40:42;16.43;;;11.00;;
53203;SDS011;39086;54.424;18.456;2023-08-06T05:41:45;13.67;;;10.93;;
53203;SDS011;39086;54.424;18.456;2023-08-06T05:42:48;17.47;;;10.53;;
53203;SDS011;39086;54.424;18.456;2023-08-06T05:43:50;17.37;;;10.67;;
53203;SDS011;39086;54.424;18.456;2023-08-06T05:44:53;14.90;;;11.20;;
53203;SDS011;39086;54.424;18.456;2023-08-06T05:45:55;14.07;;;9.47;;
53203;SDS011;39086;54.424;18.456;2023-08-06T05:46:58;15.63;;;9.57;;
53203;SDS011;39086;54.424;18.456;2023-08-06T05:48:02;13.00;;;9.27;;
53203;SDS011;39086;54.424;18.456;2023-08-06T05:49:05;15.60;;;9.33;;
53203;SDS011;39086;54.424;18.456;2023-08-06T05:50:08;13.10;;;9.40;;
53203;SDS011;39086;54.424;18.456;2023-08-06T05:51:11;13.20;;;8.70;;
53203;SDS011;39086;54.424;18.456;2023-08-06T05:52:14;10.70;;;8.70;;
53203;SDS011;39086;54.424;18.456;2023-08-06T05:53:17;13.60;;;8.70;;
53203;SDS011;39086;54.424;18.456;2023-08-06T05:54:19;15.23;;;9.07;;
53203;SDS011;39086;54.424;18.456;2023-08-06T05:55:22;10.53;;;9.07;;
53203;SDS011;39086;54.424;18.456;2023-08-06T05:56:25;11.33;;;9.33;;
53203;SDS011;39086;54.424;18.456;2023-08-06T05:57:28;11.67;;;8.93;;
53203;SDS011;39086;54.424;18.456;2023-08-06T05:58:30;12.30;;;8.63;;
53203;SDS011;39086;54.424;18.456;2023-08-06T05:59:33;12.13;;;9.10;;
53203;SDS011;39086;54.424;18.456;2023-08-06T06:00:35;9.63;;;8.43;;
53203;SDS011;39086;54.424;18.456;2023-08-06T06:01:38;15.03;;;9.60;;
53203;SDS011;39086;54.424;18.456;2023-08-06T06:02:40;13.03;;;9.00;;
53203;SDS011;39086;54.424;18.456;2023-08-06T06:03:45;10.60;;;9.17;;
53203;SDS011;39086;54.424;18.456;2023-08-06T06:04:47;10.37;;;8.57;;
53203;SDS011;39086;54.424;18.456;2023-08-06T06:05:50;11.20;;;8.73;;
53203;SDS011;39086;54.424;18.456;2023-08-06T06:06:53;9.27;;;8.10;;
53203;SDS011;39086;54.424;18.456;2023-08-06T06:07:56;14.63;;;8.67;;
53203;SDS011;39086;54.424;18.456;2023-08-06T06:08:58;9.00;;;8.20;;
53203;SDS011;39086;54.424;18.456;2023-08-06T06:10:01;12.87;;;8.80;;
53203;SDS011;39086;54.424;18.456;2023-08-06T06:11:04;9.63;;;8.10;;
53203;SDS011;39086;54.424;18.456;2023-08-06T06:12:07;8.00;;;7.30;;
53203;SDS011;39086;54.424;18.456;2023-08-06T06:13:09;12.43;;;7.60;;
53203;SDS011;39086;54.424;18.456;2023-08-06T06:14:12;8.73;;;7.30;;